createdAt,value
2023-03-26T00:00:56.840Z,99951.84
2023-03-26T00:04:00.438Z,99934.09
2023-03-26T00:07:03.806Z,99939.66
2023-03-26T00:10:07.693Z,99945.22
2023-03-26T00:13:11.713Z,99945.13
2023-03-26T00:16:18.342Z,99944.38
2023-03-26T00:19:22.650Z,99946.50
2023-03-26T00:22:26.805Z,99953.25
2023-03-26T00:25:32.099Z,99939.06
2023-03-26T00:28:36.079Z,99941.34
2023-03-26T00:31:46.437Z,99944.38
2023-03-26T00:34:52.075Z,99938.66
2023-03-26T00:37:55.748Z,99933.25
2023-03-26T00:41:06.279Z,99940.47
2023-03-26T00:44:09.682Z,99935.00
2023-03-26T00:47:13.443Z,99930.63
2023-03-26T00:50:17.666Z,99925.41
2023-03-26T00:53:22.658Z,99936.34
2023-03-26T00:56:26.707Z,99930.28
2023-03-26T00:59:30.613Z,99937.38
2023-03-26T01:02:34.191Z,99929.94
2023-03-26T01:05:49.068Z,99941.13
2023-03-26T01:08:54.789Z,99937.28
2023-03-26T01:11:58.214Z,99937.09
2023-03-26T01:15:04.132Z,99935.28
2023-03-26T01:18:09.995Z,99941.28
2023-03-26T01:21:14.703Z,99944.62
2023-03-26T01:24:19.439Z,99940.28
2023-03-26T01:27:35.918Z,99945.63
2023-03-26T01:30:45.574Z,99941.38
2023-03-26T01:34:05.279Z,99951.94
2023-03-26T01:37:27.372Z,99944.03
2023-03-26T01:40:43.049Z,99950.84
2023-03-26T01:44:07.193Z,99956.69
2023-03-26T01:47:12.944Z,99957.88
2023-03-26T01:50:16.620Z,99965.72
2023-03-26T01:53:20.117Z,99970.91
2023-03-26T01:56:42.128Z,99940.09
2023-03-26T02:00:06.901Z,99951.19
2023-03-26T02:03:30.814Z,99955.28
2023-03-26T02:06:46.400Z,99954.13
2023-03-26T02:09:55.503Z,99937.47
2023-03-26T02:12:59.324Z,99938.81
2023-03-26T02:16:05.878Z,99944.66
2023-03-26T02:19:15.711Z,99964.06
2023-03-26T02:22:19.472Z,99967.75
2023-03-26T02:25:22.588Z,99966.09
2023-03-26T02:28:26.831Z,99965.75
2023-03-26T02:31:30.404Z,99970.63
2023-03-26T02:34:34.282Z,99963.34
2023-03-26T02:37:38.393Z,99967.34
2023-03-26T02:40:44.137Z,99959.19
2023-03-26T02:43:47.623Z,99969.47
2023-03-26T02:46:51.560Z,99946.25
2023-03-26T02:49:56.007Z,99960.25
2023-03-26T02:53:00.890Z,99957.91
2023-03-26T02:56:05.777Z,99948.13
2023-03-26T02:59:12.067Z,99944.53
2023-03-26T03:02:18.524Z,99949.09
2023-03-26T03:05:26.637Z,99935.41
2023-03-26T03:08:30.499Z,99941.50
2023-03-26T03:11:36.038Z,99938.00
2023-03-26T03:14:40.941Z,99938.41
2023-03-26T03:17:46.251Z,99938.53
2023-03-26T03:20:50.977Z,99952.41
2023-03-26T03:24:00.232Z,99932.97
2023-03-26T03:27:04.264Z,99954.75
2023-03-26T03:30:09.564Z,99958.09
2023-03-26T03:33:14.526Z,99958.16
2023-03-26T03:36:22.133Z,99950.09
2023-03-26T03:39:26.301Z,99944.97
2023-03-26T03:42:30.898Z,99952.41
2023-03-26T03:45:34.266Z,99949.22
2023-03-26T03:48:39.245Z,99941.91
2023-03-26T03:51:43.991Z,99945.78
2023-03-26T03:54:48.647Z,99947.56
2023-03-26T03:57:52.754Z,99972.78
2023-03-26T04:01:00.984Z,99961.50
2023-03-26T04:04:06.527Z,99959.88
2023-03-26T04:07:13.560Z,99961.53
2023-03-26T04:10:18.039Z,99967.16
2023-03-26T04:13:24.221Z,99966.50
2023-03-26T04:16:29.171Z,99958.91
2023-03-26T04:19:34.008Z,99959.16
2023-03-26T04:22:41.222Z,99966.16
2023-03-26T04:25:50.634Z,99969.00
2023-03-26T04:28:59.991Z,99969.06
2023-03-26T04:32:07.158Z,99971.09
2023-03-26T04:35:16.497Z,99968.00
2023-03-26T04:38:20.648Z,99971.84
2023-03-26T04:41:27.770Z,99962.09
2023-03-26T04:44:31.957Z,99981.81
2023-03-26T04:47:37.274Z,99966.81
2023-03-26T04:50:49.391Z,99970.78
2023-03-26T04:54:00.618Z,99970.56
2023-03-26T04:57:09.332Z,99971.25
2023-03-26T05:00:17.694Z,99978.16
2023-03-26T05:03:21.828Z,99969.81
2023-03-26T05:06:28.922Z,99977.13
2023-03-26T05:09:32.241Z,99976.88
2023-03-26T05:12:38.122Z,99969.19
2023-03-26T05:15:41.701Z,99969.56
2023-03-26T05:18:46.830Z,99968.06
2023-03-26T05:21:50.355Z,99967.06
2023-03-26T05:24:53.844Z,99976.06
2023-03-26T05:27:57.125Z,99967.12
2023-03-26T05:31:01.387Z,99969.44
2023-03-26T05:34:05.040Z,99972.06
2023-03-26T05:37:12.381Z,99972.56
2023-03-26T05:40:17.248Z,99955.50
2023-03-26T05:43:21.242Z,99956.59
2023-03-26T05:46:26.646Z,99957.94
2023-03-26T05:49:30.274Z,99950.78
2023-03-26T05:52:34.266Z,99949.72
2023-03-26T05:55:50.663Z,99958.06
2023-03-26T05:59:02.301Z,99951.53
2023-03-26T06:02:09.509Z,99948.44
2023-03-26T06:05:16.764Z,99929.78
2023-03-26T06:08:22.112Z,99943.13
2023-03-26T06:11:26.031Z,99921.69
2023-03-26T06:14:29.134Z,99939.84
2023-03-26T06:17:34.527Z,99929.88
2023-03-26T06:20:42.692Z,99928.09
2023-03-26T06:23:50.223Z,99928.19
2023-03-26T06:26:53.659Z,99929.03
2023-03-26T06:29:57.281Z,99940.53
2023-03-26T06:33:01.236Z,99929.66
2023-03-26T06:36:05.568Z,99939.91
2023-03-26T06:39:08.915Z,99934.88
2023-03-26T06:42:13.209Z,99923.34
2023-03-26T06:45:17.339Z,99929.81
2023-03-26T06:48:25.740Z,99923.69
2023-03-26T06:51:31.592Z,99924.81
2023-03-26T06:54:38.648Z,99934.56
2023-03-26T06:57:45.361Z,99922.00
2023-03-26T07:00:54.517Z,99929.69
2023-03-26T07:04:01.244Z,99924.87
2023-03-26T07:07:14.837Z,99930.53
2023-03-26T07:10:20.543Z,99920.13
2023-03-26T07:13:24.606Z,99920.72
2023-03-26T07:16:30.295Z,99920.97
2023-03-26T07:19:35.249Z,99912.81
2023-03-26T07:22:39.226Z,99920.47
2023-03-26T07:25:44.133Z,99914.81
2023-03-26T07:29:12.807Z,99908.41
2023-03-26T07:32:22.398Z,99910.75
2023-03-26T07:35:48.997Z,99900.03
2023-03-26T07:39:33.156Z,99915.03
2023-03-26T07:43:09.388Z,99906.69
2023-03-26T07:46:15.565Z,99915.06
2023-03-26T07:49:20.803Z,99917.03
2023-03-26T07:52:27.721Z,99912.50
2023-03-26T07:55:31.662Z,99902.34
2023-03-26T07:58:53.129Z,99914.84
2023-03-26T08:02:21.441Z,99916.81
2023-03-26T08:05:56.468Z,99913.84
2023-03-26T08:09:22.898Z,99910.34
2023-03-26T08:12:36.849Z,99922.47
2023-03-26T08:15:57.859Z,99907.19
2023-03-26T08:19:51.979Z,99912.28
2023-03-26T08:23:02.417Z,99911.25
2023-03-26T08:26:13.819Z,99912.72
2023-03-26T08:29:34.767Z,99918.94
2023-03-26T08:32:39.258Z,99913.12
2023-03-26T08:35:43.204Z,99910.94
2023-03-26T08:38:47.000Z,99917.13
2023-03-26T08:41:58.981Z,99916.78
2023-03-26T08:45:17.640Z,99910.44
2023-03-26T08:49:01.522Z,99910.66
2023-03-26T08:52:14.134Z,99911.47
2023-03-26T08:55:26.253Z,99900.22
2023-03-26T08:58:53.117Z,99909.37
2023-03-26T09:02:08.897Z,99903.69
2023-03-26T09:06:08.709Z,99898.75
2023-03-26T09:09:49.442Z,99901.31
2023-03-26T09:13:17.000Z,99893.53
2023-03-26T09:16:26.592Z,99891.66
2023-03-26T09:19:48.844Z,99888.13
2023-03-26T09:23:07.166Z,99871.81
2023-03-26T09:26:26.273Z,99872.59
2023-03-26T09:30:07.136Z,99868.03
2023-03-26T09:33:32.938Z,99867.41
2023-03-26T09:36:49.590Z,99869.88
2023-03-26T09:40:08.183Z,99883.06
2023-03-26T09:43:36.926Z,99882.94
2023-03-26T09:47:20.032Z,99890.47
2023-03-26T09:50:35.241Z,99881.78
2023-03-26T09:54:06.331Z,99877.91
2023-03-26T09:57:22.913Z,99879.37
2023-03-26T10:00:42.181Z,99870.03
2023-03-26T10:04:24.493Z,99868.03
2023-03-26T10:07:53.554Z,99867.56
2023-03-26T10:10:59.686Z,99867.12
2023-03-26T10:14:11.688Z,99858.59
2023-03-26T10:17:32.065Z,99839.16
2023-03-26T10:21:01.525Z,99819.00
2023-03-26T10:24:34.730Z,99830.56
2023-03-26T10:27:47.939Z,99825.31
2023-03-26T10:31:06.248Z,99806.16
2023-03-26T10:34:19.430Z,99811.59
2023-03-26T10:37:51.689Z,99800.41
2023-03-26T10:41:09.097Z,99787.22
2023-03-26T10:44:31.830Z,99782.69
2023-03-26T10:47:41.105Z,99776.12
2023-03-26T10:51:06.442Z,99767.22
2023-03-26T10:54:31.524Z,99765.31
2023-03-26T10:57:46.368Z,99757.97
2023-03-26T11:01:02.583Z,99767.59
2023-03-26T11:04:44.886Z,99751.78
2023-03-26T11:08:13.772Z,99743.00
2023-03-26T11:11:23.417Z,99727.00
2023-03-26T11:14:35.297Z,99729.03
2023-03-26T11:18:00.450Z,99721.25
2023-03-26T11:21:19.771Z,99733.09
2023-03-26T11:24:57.665Z,99709.13
2023-03-26T11:28:23.836Z,99698.88
2023-03-26T11:31:45.728Z,99700.50
2023-03-26T11:35:09.502Z,99696.28
2023-03-26T11:38:20.998Z,99677.50
2023-03-26T11:41:27.500Z,99688.75
2023-03-26T11:44:39.629Z,99678.59
2023-03-26T11:48:13.957Z,99674.19
2023-03-26T11:51:25.905Z,99661.00
2023-03-26T11:54:29.728Z,99650.78
2023-03-26T11:57:36.305Z,99645.75
2023-03-26T12:00:40.577Z,99650.75
2023-03-26T12:03:57.615Z,99645.34
2023-03-26T12:07:16.642Z,99634.50
2023-03-26T12:10:26.497Z,99612.97
2023-03-26T12:13:43.575Z,99613.47
2023-03-26T12:17:14.456Z,99609.84
2023-03-26T12:20:26.899Z,99596.37
2023-03-26T12:23:46.027Z,99599.13
2023-03-26T12:26:58.324Z,99590.75
2023-03-26T12:30:22.497Z,99589.31
2023-03-26T12:33:29.678Z,99573.09
2023-03-26T12:36:35.995Z,99573.06
2023-03-26T12:40:10.129Z,99567.09
2023-03-26T12:44:55.972Z,99569.00
2023-03-26T12:47:57.381Z,99563.59
2023-03-26T12:50:42.849Z,99558.94
2023-03-26T12:53:59.047Z,99552.63
2023-03-26T12:57:22.826Z,99553.56
2023-03-26T13:00:26.492Z,99545.56
2023-03-26T13:03:51.742Z,99536.41
2023-03-26T13:07:02.623Z,99528.87
2023-03-26T13:10:57.683Z,99541.56
2023-03-26T13:14:39.240Z,99527.31
2023-03-26T13:18:02.503Z,99528.87
2023-03-26T13:21:34.064Z,99513.72
2023-03-26T13:24:49.474Z,99506.06
2023-03-26T13:28:31.921Z,99493.06
2023-03-26T13:32:05.598Z,99483.94
2023-03-26T13:35:24.690Z,99482.44
2023-03-26T13:38:58.960Z,99473.03
2023-03-26T13:42:18.888Z,99469.34
2023-03-26T13:45:54.595Z,99465.00
2023-03-26T13:49:09.561Z,99455.16
2023-03-26T13:52:19.315Z,99451.25
2023-03-26T13:55:27.339Z,99453.34
2023-03-26T13:59:09.589Z,99451.87
2023-03-26T14:02:43.319Z,99446.53
2023-03-26T14:05:51.979Z,99430.28
2023-03-26T14:09:10.773Z,99433.59
2023-03-26T14:12:39.228Z,99417.88
2023-03-26T14:15:55.414Z,99421.84
2023-03-26T14:19:25.045Z,99422.19
2023-03-26T14:23:03.913Z,99422.69
2023-03-26T14:26:42.812Z,99413.63
2023-03-26T14:30:12.761Z,99401.56
2023-03-26T14:33:28.501Z,99396.78
2023-03-26T14:36:47.065Z,99383.81
2023-03-26T14:40:23.594Z,99388.47
2023-03-26T14:44:15.658Z,99379.03
2023-03-26T14:47:23.001Z,99374.53
2023-03-26T14:50:47.247Z,99361.19
2023-03-26T14:54:01.025Z,99359.47
2023-03-26T14:57:21.753Z,99351.94
2023-03-26T15:00:56.278Z,99334.06
2023-03-26T15:04:26.897Z,99345.44
2023-03-26T15:07:53.444Z,99337.75
2023-03-26T15:11:46.521Z,99329.38
2023-03-26T15:15:31.306Z,99329.19
2023-03-26T15:18:45.275Z,99319.44
2023-03-26T15:22:15.769Z,99316.88
2023-03-26T15:25:42.011Z,99312.88
2023-03-26T15:29:04.015Z,99305.75
2023-03-26T15:32:30.375Z,99312.03
2023-03-26T15:35:46.228Z,99287.63
2023-03-26T15:39:21.110Z,99283.34
2023-03-26T15:42:38.283Z,99291.97
2023-03-26T15:46:04.319Z,99285.50
2023-03-26T15:49:40.411Z,99291.16
2023-03-26T15:53:04.283Z,99286.69
2023-03-26T15:56:17.861Z,99284.19
2023-03-26T15:59:43.321Z,99274.19
2023-03-26T16:02:53.980Z,99267.38
2023-03-26T16:06:16.275Z,99265.75
2023-03-26T16:09:40.430Z,99261.50
2023-03-26T16:13:17.522Z,99258.09
2023-03-26T16:16:25.800Z,99247.75
2023-03-26T16:19:52.198Z,99238.94
2023-03-26T16:23:17.047Z,99232.84
2023-03-26T16:26:47.193Z,99232.69
2023-03-26T16:30:02.016Z,99224.34
2023-03-26T16:33:21.402Z,99224.59
2023-03-26T16:36:35.239Z,99227.81
2023-03-26T16:39:41.381Z,99244.34
2023-03-26T16:43:25.750Z,99229.31
2023-03-26T16:47:05.665Z,99216.81
2023-03-26T16:50:12.380Z,99227.59
2023-03-26T16:53:27.182Z,99227.91
2023-03-26T16:56:49.895Z,99233.75
2023-03-26T17:00:19.640Z,99237.66
2023-03-26T17:03:48.878Z,99227.22
2023-03-26T17:06:57.449Z,99228.94
2023-03-26T17:10:31.741Z,99232.94
2023-03-26T17:14:16.541Z,99228.94
2023-03-26T17:17:47.391Z,99221.88
2023-03-26T17:21:24.094Z,99231.66
2023-03-26T17:24:33.709Z,99226.63
2023-03-26T17:27:53.459Z,99230.47
2023-03-26T17:31:36.999Z,99237.03
2023-03-26T17:34:51.571Z,99227.06
2023-03-26T17:37:58.770Z,99234.84
2023-03-26T17:41:05.508Z,99242.47
2023-03-26T17:44:43.544Z,99226.47
2023-03-26T17:47:59.904Z,99229.06
2023-03-26T17:51:43.018Z,99235.84
2023-03-26T17:54:52.760Z,99226.63
2023-03-26T17:58:05.118Z,99226.09
2023-03-26T18:01:38.601Z,99218.66
2023-03-26T18:04:48.514Z,99237.84
2023-03-26T18:08:24.642Z,99244.13
2023-03-26T18:12:02.038Z,99244.97
2023-03-26T18:15:14.933Z,99245.69
2023-03-26T18:18:23.676Z,99241.47
2023-03-26T18:21:52.829Z,99238.75
2023-03-26T18:25:00.465Z,99234.44
2023-03-26T18:28:06.562Z,99229.53
2023-03-26T18:31:32.249Z,99204.16
2023-03-26T18:34:40.482Z,99210.16
2023-03-26T18:37:46.264Z,99211.03
2023-03-26T18:40:56.533Z,99186.16
2023-03-26T18:44:12.243Z,99206.88
2023-03-26T18:47:16.899Z,99206.13
2023-03-26T18:50:43.670Z,99193.16
2023-03-26T18:53:52.713Z,99192.75
2023-03-26T18:56:59.686Z,99194.47
2023-03-26T19:00:19.398Z,99177.34
2023-03-26T19:03:26.675Z,99175.25
2023-03-26T19:06:39.009Z,99157.56
2023-03-26T19:09:44.645Z,99164.56
2023-03-26T19:13:00.218Z,99162.31
2023-03-26T19:16:34.457Z,99156.03
2023-03-26T19:19:39.178Z,99143.41
2023-03-26T19:22:46.930Z,99135.84
2023-03-26T19:26:00.204Z,99137.13
2023-03-26T19:29:06.316Z,99113.41
2023-03-26T19:32:20.367Z,99122.66
2023-03-26T19:35:25.953Z,99122.47
2023-03-26T19:38:39.566Z,99110.44
2023-03-26T19:41:50.988Z,99103.88
2023-03-26T19:44:58.930Z,99103.88
2023-03-26T19:48:15.298Z,99096.19
2023-03-26T19:51:23.925Z,99095.06
2023-03-26T19:54:33.793Z,99093.16
2023-03-26T19:57:38.539Z,99084.19
2023-03-26T20:00:46.145Z,99087.91
2023-03-26T20:03:58.365Z,99074.75
2023-03-26T20:07:03.046Z,99069.91
2023-03-26T20:10:11.405Z,99067.62
2023-03-26T20:13:18.588Z,99034.75
2023-03-26T20:16:27.667Z,99047.91
2023-03-26T20:19:32.215Z,99042.66
2023-03-26T20:22:36.842Z,99035.22
2023-03-26T20:25:50.188Z,99009.50
2023-03-26T20:28:55.268Z,99042.72
2023-03-26T20:31:59.973Z,99041.31
2023-03-26T20:35:35.867Z,99015.31
2023-03-26T20:38:44.777Z,99024.97
2023-03-26T20:41:50.854Z,98998.62
2023-03-26T20:44:58.828Z,99013.34
2023-03-26T20:48:04.150Z,98994.22
2023-03-26T20:51:15.663Z,98991.22
2023-03-26T20:54:24.030Z,98987.53
2023-03-26T20:57:27.558Z,98986.53
2023-03-26T21:00:32.759Z,98985.41
2023-03-26T21:03:36.138Z,98978.81
2023-03-26T21:06:43.952Z,98964.56
2023-03-26T21:09:48.861Z,98976.41
2023-03-26T21:13:11.318Z,98969.09
2023-03-26T21:16:15.011Z,99001.97
2023-03-26T21:19:19.365Z,99009.25
2023-03-26T21:22:25.985Z,99012.53
2023-03-26T21:25:45.535Z,99010.00
2023-03-26T21:28:50.531Z,99019.13
2023-03-26T21:31:56.028Z,99021.75
2023-03-26T21:34:59.718Z,99016.59
2023-03-26T21:38:04.701Z,99023.16
2023-03-26T21:41:25.340Z,99016.53
2023-03-26T21:44:29.267Z,99016.09
2023-03-26T21:47:32.765Z,99014.62
2023-03-26T21:50:37.098Z,99001.56
2023-03-26T21:53:41.730Z,99009.78
2023-03-26T21:56:53.177Z,98999.84
2023-03-26T22:00:25.735Z,98996.97
2023-03-26T22:03:38.525Z,98985.34
2023-03-26T22:06:49.245Z,98956.47
2023-03-26T22:09:53.070Z,98987.28
2023-03-26T22:12:56.523Z,98986.56
2023-03-26T22:16:00.267Z,98975.56
2023-03-26T22:19:03.455Z,98971.37
2023-03-26T22:22:06.855Z,98966.72
2023-03-26T22:25:10.580Z,98970.84
2023-03-26T22:28:13.977Z,98981.34
2023-03-26T22:31:17.742Z,98977.44
2023-03-26T22:34:23.214Z,98966.03
2023-03-26T22:37:26.439Z,98964.69
2023-03-26T22:40:30.895Z,98974.44
2023-03-26T22:43:34.486Z,98961.16
2023-03-26T22:46:38.908Z,98972.75
2023-03-26T22:49:42.089Z,98968.50
2023-03-26T22:52:45.916Z,98965.00
2023-03-26T22:55:49.025Z,98965.84
2023-03-26T22:58:52.848Z,98957.41
2023-03-26T23:01:56.808Z,98945.78
2023-03-26T23:05:00.519Z,98932.31
2023-03-26T23:08:04.195Z,98936.25
2023-03-26T23:11:13.243Z,98926.06
2023-03-26T23:14:16.733Z,98922.03
2023-03-26T23:17:20.234Z,98908.31
2023-03-26T23:20:24.064Z,98920.19
2023-03-26T23:23:31.026Z,98920.06
2023-03-26T23:26:43.872Z,98920.44
2023-03-26T23:29:53.558Z,98918.63
2023-03-26T23:32:57.410Z,98919.31
2023-03-26T23:36:07.243Z,98905.47
2023-03-26T23:39:10.999Z,98911.13
2023-03-26T23:42:28.750Z,98914.19
2023-03-26T23:45:33.570Z,98901.31
2023-03-26T23:48:37.859Z,98877.31
2023-03-26T23:51:42.223Z,98898.00
2023-03-26T23:54:47.454Z,98893.72
2023-03-26T23:57:51.733Z,98883.06
